Time;durP1;ratioP1;P1;durP2;ratioP2;P2;SDS_P1;SDS_P2;PMS_P1;PMS_P2;Temp;Humidity;BMP_temperature;BMP_pressure;BME280_temperature;BME280_humidity;BME280_pressure;Samples;Min_cycle;Max_cycle;Signal;HPM_P1;HPM_P2
2024/03/29 00:01:17;;;;;;;0.30;0.20;;;;;;;6.89;90.61;98359.22;5014103;28;20268;-49
2024/03/29 00:03:43;;;;;;;0.30;0.20;;;;;;;6.95;90.25;98346.59;5013793;28;20268;-48
2024/03/29 00:06:08;;;;;;;0.30;0.20;;;;;;;6.97;88.86;98342.09;5013905;28;20297;-49
2024/03/29 00:08:34;;;;;;;0.30;0.20;;;;;;;6.98;89.90;98349.09;5014060;28;20291;-48
2024/03/29 00:10:59;;;;;;;0.30;0.20;;;;;;;6.85;90.16;98340.00;5013839;28;20214;-49
2024/03/29 00:13:25;;;;;;;0.30;0.20;;;;;;;6.89;90.23;98327.53;5013724;28;20237;-48
2024/03/29 00:15:50;;;;;;;0.30;0.20;;;;;;;6.96;90.39;98331.59;5013797;28;20297;-48
2024/03/29 00:18:16;;;;;;;0.30;0.20;;;;;;;6.90;91.99;98330.13;5013802;28;20341;-48
2024/03/29 00:20:42;;;;;;;0.30;0.20;;;;;;;7.04;90.80;98317.13;5013773;28;20235;-48
2024/03/29 00:23:07;;;;;;;0.40;0.40;;;;;;;7.03;90.76;98326.00;5013696;28;20236;-48
2024/03/29 00:25:33;;;;;;;0.30;0.20;;;;;;;7.09;91.43;98324.84;5013546;28;20746;-48
2024/03/29 00:27:58;;;;;;;0.30;0.20;;;;;;;6.91;91.60;98321.25;5013597;28;20260;-48
2024/03/29 00:30:24;;;;;;;0.30;0.20;;;;;;;7.21;90.52;98308.41;5013570;28;20667;-49
2024/03/29 00:32:49;;;;;;;0.30;0.20;;;;;;;7.06;90.59;98310.00;5013176;28;20304;-49
2024/03/29 00:35:15;;;;;;;0.30;0.20;;;;;;;6.95;91.68;98301.69;5013583;28;20615;-49
2024/03/29 00:37:40;;;;;;;0.30;0.20;;;;;;;6.94;92.17;98296.50;5013093;28;20247;-48
2024/03/29 00:40:06;;;;;;;0.30;0.20;;;;;;;7.05;92.17;98297.72;5013388;28;20217;-50
2024/03/29 00:42:32;;;;;;;0.30;0.20;;;;;;;6.91;92.71;98309.84;5012455;28;20237;-48
2024/03/29 00:44:57;;;;;;;0.30;0.20;;;;;;;7.05;91.89;98299.50;5013343;28;20469;-48
2024/03/29 00:47:23;;;;;;;0.30;0.20;;;;;;;6.96;92.60;98289.34;5013235;28;20590;-48
2024/03/29 00:49:48;;;;;;;0.30;0.20;;;;;;;6.99;92.63;98297.13;5012876;28;20662;-48
2024/03/29 00:52:14;;;;;;;0.30;0.10;;;;;;;7.01;93.65;98293.50;5012065;28;20234;-49
2024/03/29 00:54:39;;;;;;;0.30;0.20;;;;;;;6.80;93.62;98297.13;5011330;28;20264;-48
2024/03/29 00:57:06;;;;;;;0.30;0.20;;;;;;;6.86;94.22;98299.50;5012112;28;20308;-48
2024/03/29 00:59:32;;;;;;;0.30;0.20;;;;;;;7.00;93.77;98283.88;5013165;28;20221;-48
2024/03/29 01:01:57;;;;;;;0.30;0.20;;;;;;;7.00;93.08;98281.22;5012901;28;20473;-48
2024/03/29 01:04:23;;;;;;;0.30;0.20;;;;;;;7.05;94.57;98283.66;5013024;28;20214;-48
2024/03/29 01:06:48;;;;;;;0.30;0.17;;;;;;;6.94;94.59;98283.28;5012890;28;20622;-48
2024/03/29 01:09:14;;;;;;;0.30;0.20;;;;;;;7.02;94.09;98289.09;5012897;28;20589;-48
2024/03/29 01:11:40;;;;;;;0.30;0.20;;;;;;;6.84;95.64;98283.69;5012398;28;20733;-48
2024/03/29 01:14:06;;;;;;;0.30;0.10;;;;;;;6.97;94.49;98283.13;5012764;28;20268;-49
2024/03/29 01:16:32;;;;;;;0.30;0.20;;;;;;;6.76;95.25;98272.66;5012538;28;20461;-48
2024/03/29 01:18:59;;;;;;;0.30;0.20;;;;;;;7.01;95.05;98267.09;5012749;28;20461;-48
2024/03/29 01:21:26;;;;;;;0.30;0.20;;;;;;;6.71;95.61;98256.16;5012514;28;20772;-49
2024/03/29 01:23:52;;;;;;;0.30;0.20;;;;;;;6.84;95.94;98257.28;5012600;28;20900;-48
2024/03/29 01:26:17;;;;;;;0.30;0.20;;;;;;;6.77;95.27;98233.91;5012467;28;20464;-49
2024/03/29 01:28:43;;;;;;;0.30;0.20;;;;;;;6.80;96.23;98228.47;5012255;28;20674;-49
2024/03/29 01:31:09;;;;;;;0.30;0.20;;;;;;;6.74;96.53;98218.22;5012424;28;20221;-46
2024/03/29 01:33:37;;;;;;;0.30;0.20;;;;;;;6.72;96.48;98217.44;5012269;28;20488;-48
2024/03/29 01:36:04;;;;;;;0.30;0.20;;;;;;;6.61;97.27;98233.75;5012361;28;20225;-47
2024/03/29 01:38:30;;;;;;;0.30;0.20;;;;;;;6.53;97.38;98230.59;5012046;28;20461;-47
2024/03/29 01:40:55;;;;;;;0.30;0.13;;;;;;;6.65;97.11;98250.31;5011945;28;20476;-47
2024/03/29 01:43:21;;;;;;;0.30;0.20;;;;;;;6.59;97.87;98242.69;5028693;28;20240;-47
2024/03/29 01:45:49;;;;;;;0.43;0.40;;;;;;;6.59;97.70;98250.59;5012240;28;20773;-49
2024/03/29 01:48:17;;;;;;;0.30;0.13;;;;;;;6.61;97.00;98257.50;5012282;28;20213;-48
2024/03/29 01:50:42;;;;;;;0.30;0.20;;;;;;;6.56;97.95;98264.75;5000049;28;20460;-49
2024/03/29 01:53:08;;;;;;;0.30;0.20;;;;;;;6.68;96.91;98253.66;5011758;28;20525;-48
2024/03/29 01:55:35;;;;;;;0.30;0.20;;;;;;;6.59;97.38;98262.00;5011796;28;20220;-49
2024/03/29 01:58:02;;;;;;;0.30;0.10;;;;;;;6.72;96.91;98263.16;5011892;28;20460;-48
2024/03/29 02:00:30;;;;;;;0.30;0.20;;;;;;;6.62;97.06;98271.56;4998943;28;20476;-48
2024/03/29 02:02:56;;;;;;;0.30;0.20;;;;;;;6.64;98.10;98264.44;5011907;28;20469;-48
2024/03/29 02:05:22;;;;;;;0.30;0.20;;;;;;;6.63;96.79;98253.00;5012023;28;20475;-48
2024/03/29 02:07:48;;;;;;;0.30;0.10;;;;;;;6.64;97.54;98260.00;5011919;28;20461;-48
2024/03/29 02:10:17;;;;;;;0.30;0.20;;;;;;;6.71;97.35;98293.09;5011879;28;20522;-48
2024/03/29 02:12:42;;;;;;;0.40;0.20;;;;;;;6.69;97.38;98291.47;5011167;28;20241;-48
2024/03/29 02:15:08;;;;;;;0.30;0.20;;;;;;;6.69;97.83;98273.84;5011814;28;20530;-48
2024/03/29 02:17:34;;;;;;;0.30;0.10;;;;;;;6.76;98.18;98296.41;5011613;28;20229;-49
2024/03/29 02:19:59;;;;;;;0.30;0.20;;;;;;;6.88;97.29;98302.06;5011774;28;20220;-47
2024/03/29 02:22:27;;;;;;;0.30;0.10;;;;;;;7.08;96.61;98299.34;5011158;28;20295;-46
2024/03/29 02:24:54;;;;;;;0.30;0.20;;;;;;;7.08;97.06;98296.72;5011626;28;20225;-47
2024/03/29 02:27:21;;;;;;;0.30;0.20;;;;;;;7.04;96.96;98297.78;5011235;28;20456;-47
2024/03/29 02:29:46;;;;;;;0.30;0.20;;;;;;;7.15;95.94;98271.72;5011657;28;20515;-47
2024/03/29 02:32:12;;;;;;;0.30;0.20;;;;;;;6.99;97.14;98250.47;5011260;28;20924;-48
2024/03/29 02:34:37;;;;;;;0.30;0.20;;;;;;;7.00;97.95;98233.69;5027805;28;20297;-48
2024/03/29 02:37:03;;;;;;;0.30;0.20;;;;;;;7.07;98.00;98213.97;5011411;28;20259;-48
2024/03/29 02:39:29;;;;;;;0.30;0.20;;;;;;;7.00;98.71;98209.06;5011522;28;20245;-48
2024/03/29 02:41:54;;;;;;;0.30;0.20;;;;;;;7.19;98.25;98199.31;5011413;28;20244;-48
2024/03/29 02:44:20;;;;;;;0.30;0.20;;;;;;;7.27;98.07;98199.81;5011467;28;20252;-49
2024/03/29 02:46:45;;;;;;;0.30;0.20;;;;;;;7.40;98.52;98192.09;5027928;28;20221;-48
2024/03/29 02:49:11;;;;;;;0.30;0.10;;;;;;;7.40;98.49;98213.25;5011559;28;20223;-48
2024/03/29 02:51:36;;;;;;;0.30;0.20;;;;;;;7.60;97.89;98214.91;5010974;28;20225;-49
2024/03/29 02:54:02;;;;;;;0.30;0.10;;;;;;;7.54;98.11;98233.72;5011191;28;20299;-48
2024/03/29 02:56:27;;;;;;;0.30;0.20;;;;;;;7.44;98.08;98246.53;5011215;28;20229;-49
2024/03/29 02:58:55;;;;;;;0.30;0.20;;;;;;;7.30;99.39;98267.50;5011460;28;20575;-48
2024/03/29 03:01:20;;;;;;;0.30;0.17;;;;;;;7.21;100.00;98300.50;5011078;28;20209;-48
2024/03/29 03:03:46;;;;;;;0.30;0.20;;;;;;;7.50;100.00;98280.59;5011261;28;20518;-48
2024/03/29 03:06:11;;;;;;;0.30;0.17;;;;;;;7.58;99.00;98259.09;5012703;28;20225;-49
2024/03/29 03:11:21;;;;;;;0.30;0.20;;;;;;;7.98;97.09;98285.25;5014989;28;20652;-48
2024/03/29 03:13:46;;;;;;;0.30;0.20;;;;;;;7.95;96.96;98282.78;5014786;28;20472;-49
2024/03/29 03:16:12;;;;;;;0.30;0.20;;;;;;;7.87;96.93;98271.72;5014946;28;20356;-48
2024/03/29 03:18:37;;;;;;;0.30;0.20;;;;;;;8.07;96.00;98264.53;5015050;28;20218;-48
2024/03/29 03:21:03;;;;;;;0.30;0.20;;;;;;;7.91;97.16;98261.81;5014999;28;20244;-49
2024/03/29 03:23:29;;;;;;;0.30;0.20;;;;;;;7.63;99.61;98257.06;5014888;28;20261;-48
2024/03/29 03:25:59;;;;;;;0.30;0.20;;;;;;;7.47;100.00;98249.03;5014758;28;20218;-48
2024/03/29 03:28:25;;;;;;;0.30;0.20;;;;;;;7.75;99.12;98245.03;5014916;28;20210;-48
2024/03/29 03:30:53;;;;;;;0.30;0.20;;;;;;;7.81;99.43;98264.09;5014678;28;20837;-48
2024/03/29 03:33:19;;;;;;;0.30;0.20;;;;;;;7.90;100.00;98290.06;5014429;28;20500;-48
2024/03/29 03:35:45;;;;;;;0.30;0.20;;;;;;;8.11;100.00;98274.06;5014515;28;20465;-48
2024/03/29 03:38:12;;;;;;;0.30;0.20;;;;;;;7.44;100.00;98265.03;5014346;28;20469;-48
2024/03/29 03:40:38;;;;;;;0.30;0.20;;;;;;;7.45;100.00;98264.13;5014482;28;20292;-47
2024/03/29 03:43:04;;;;;;;0.30;0.20;;;;;;;7.70;100.00;98261.97;5014520;28;20478;-47
2024/03/29 03:45:37;;;;;;;0.30;0.20;;;;;;;7.75;100.00;98266.19;5014356;28;20461;-47
2024/03/29 03:48:05;;;;;;;0.30;0.10;;;;;;;7.81;100.00;98268.50;5014471;28;20819;-47
2024/03/29 03:50:30;;;;;;;0.30;0.20;;;;;;;7.78;100.00;98276.59;5013920;28;20464;-48
2024/03/29 03:52:56;;;;;;;0.30;0.20;;;;;;;8.10;100.00;98259.13;5014164;28;20582;-46
2024/03/29 03:55:22;;;;;;;0.30;0.17;;;;;;;7.90;100.00;98260.97;5013946;28;20213;-47
2024/03/29 03:57:48;;;;;;;0.30;0.20;;;;;;;8.13;100.00;98251.03;5014400;28;20453;-47
2024/03/29 04:00:13;;;;;;;0.30;0.20;;;;;;;7.87;100.00;98244.41;5014274;28;20938;-47
2024/03/29 04:02:39;;;;;;;0.30;0.20;;;;;;;7.83;100.00;98253.44;5014016;28;20568;-48
2024/03/29 04:05:07;;;;;;;0.30;0.20;;;;;;;7.85;100.00;98247.13;5013971;28;20683;-47
2024/03/29 04:07:32;;;;;;;0.30;0.20;;;;;;;7.76;100.00;98244.94;5013849;28;20247;-48
2024/03/29 04:09:58;;;;;;;0.30;0.20;;;;;;;7.90;100.00;98247.75;5013923;28;20480;-47
2024/03/29 04:12:23;;;;;;;0.30;0.20;;;;;;;7.60;100.00;98252.78;5013696;28;20238;-48
2024/03/29 04:14:49;;;;;;;0.30;0.20;;;;;;;7.70;100.00;98254.06;5013796;28;20233;-47
2024/03/29 04:17:14;;;;;;;0.30;0.20;;;;;;;7.67;100.00;98248.03;5013033;28;20218;-48
2024/03/29 04:19:40;;;;;;;0.30;0.20;;;;;;;7.69;100.00;98240.91;5013664;28;20260;-47
2024/03/29 04:22:05;;;;;;;0.30;0.20;;;;;;;7.66;100.00;98257.75;5013874;28;20233;-47
2024/03/29 04:24:31;;;;;;;0.30;0.20;;;;;;;7.58;100.00;98259.09;5013605;28;20312;-48
2024/03/29 04:26:58;;;;;;;0.30;0.20;;;;;;;7.63;100.00;98249.13;5013777;28;20221;-48
2024/03/29 04:29:23;;;;;;;0.30;0.20;;;;;;;7.83;100.00;98234.94;5013579;28;20217;-48
2024/03/29 04:31:49;;;;;;;0.30;0.10;;;;;;;7.73;100.00;98238.03;5013221;28;21029;-47
2024/03/29 04:34:14;;;;;;;0.30;0.20;;;;;;;7.58;100.00;98237.94;5013526;28;20218;-48
2024/03/29 04:36:40;;;;;;;0.30;0.20;;;;;;;7.69;100.00;98236.47;5013533;28;20225;-47
2024/03/29 04:39:06;;;;;;;0.30;0.20;;;;;;;7.62;100.00;98226.28;5005278;28;20611;-47
2024/03/29 04:41:34;;;;;;;0.43;0.40;;;;;;;7.64;100.00;98227.91;5013189;28;20700;-48
2024/03/29 04:44:04;;;;;;;0.30;0.20;;;;;;;7.61;100.00;98237.78;5013056;28;20465;-47
2024/03/29 04:46:30;;;;;;;0.30;0.10;;;;;;;7.67;100.00;98234.81;5013103;28;20918;-48
2024/03/29 04:48:57;;;;;;;0.30;0.20;;;;;;;7.64;100.00;98224.41;5013416;28;20465;-48
2024/03/29 04:51:22;;;;;;;0.30;0.20;;;;;;;7.56;100.00;98222.16;5013048;28;20464;-47
2024/03/29 04:53:48;;;;;;;0.30;0.20;;;;;;;7.57;100.00;98221.22;5013219;28;20547;-47
2024/03/29 04:56:13;;;;;;;0.30;0.20;;;;;;;7.61;100.00;98224.56;5013199;28;20292;-48
2024/03/29 04:58:39;;;;;;;0.30;0.20;;;;;;;7.75;100.00;98230.00;5013098;28;20624;-48
2024/03/29 05:01:05;;;;;;;0.30;0.10;;;;;;;7.54;100.00;98231.06;5013153;28;20645;-48
2024/03/29 05:03:30;;;;;;;0.30;0.20;;;;;;;7.51;100.00;98225.94;5012996;28;20675;-48
2024/03/29 05:05:56;;;;;;;0.30;0.20;;;;;;;7.75;100.00;98230.00;5013192;28;20727;-49
2024/03/29 05:08:22;;;;;;;0.30;0.20;;;;;;;7.86;100.00;98227.69;5012988;28;20222;-47
2024/03/29 05:10:51;;;;;;;0.30;0.20;;;;;;;7.78;100.00;98226.34;5013007;28;20597;-47
2024/03/29 05:13:20;;;;;;;0.30;0.20;;;;;;;7.70;100.00;98232.91;5029951;23;20510;-50
2024/03/29 05:15:49;;;;;;;0.30;0.20;;;;;;;7.80;100.00;98230.63;5004178;28;20826;-50
2024/03/29 05:18:15;;;;;;;0.30;0.17;;;;;;;7.77;100.00;98224.63;5009341;28;20953;-50
2024/03/29 05:20:48;;;;;;;0.30;0.20;;;;;;;7.80;100.00;98238.56;5008429;28;20475;-50
2024/03/29 05:23:14;;;;;;;0.30;0.20;;;;;;;7.80;100.00;98227.97;5015791;28;20237;-49
2024/03/29 05:25:41;;;;;;;0.30;0.20;;;;;;;7.86;100.00;98245.34;5015927;28;20467;-50
2024/03/29 05:28:07;;;;;;;0.30;0.10;;;;;;;7.86;100.00;98243.56;5015937;28;20224;-50
2024/03/29 05:30:33;;;;;;;0.30;0.20;;;;;;;7.84;100.00;98257.78;5015612;28;20456;-50
2024/03/29 05:32:58;;;;;;;0.30;0.20;;;;;;;7.91;100.00;98260.03;5015425;28;20495;-50
2024/03/29 05:35:24;;;;;;;0.30;0.20;;;;;;;7.90;100.00;98262.75;5015789;28;20286;-50
2024/03/29 05:37:53;;;;;;;0.30;0.20;;;;;;;7.93;100.00;98270.53;5015656;28;20227;-50
2024/03/29 05:40:18;;;;;;;0.30;0.20;;;;;;;7.87;100.00;98273.50;5015626;28;20220;-50
2024/03/29 05:42:44;;;;;;;0.30;0.20;;;;;;;7.82;100.00;98276.38;5015708;28;20479;-50
2024/03/29 05:45:24;;;;;;;0.30;0.20;;;;;;;7.83;100.00;98279.88;5015500;28;20728;-50
2024/03/29 05:47:50;;;;;;;0.30;0.20;;;;;;;7.85;100.00;98283.31;5011362;28;20673;-50
2024/03/29 05:50:16;;;;;;;0.30;0.20;;;;;;;7.86;100.00;98270.00;5015358;28;20551;-50
2024/03/29 05:52:41;;;;;;;0.53;0.50;;;;;;;8.02;100.00;98275.38;5014889;28;20649;-50
2024/03/29 05:55:09;;;;;;;0.30;0.20;;;;;;;8.02;100.00;98280.66;5015351;28;20304;-50
2024/03/29 05:57:38;;;;;;;0.30;0.20;;;;;;;7.99;100.00;98286.13;5015511;28;20216;-50
2024/03/29 06:00:05;;;;;;;0.30;0.20;;;;;;;7.93;100.00;98283.75;5015257;28;20827;-50
2024/03/29 06:02:31;;;;;;;0.30;0.20;;;;;;;7.97;100.00;98286.19;5015155;28;20472;-50
2024/03/29 06:04:56;;;;;;;0.30;0.20;;;;;;;8.01;100.00;98289.53;5015245;28;20471;-50
2024/03/29 06:07:22;;;;;;;0.30;0.20;;;;;;;7.99;100.00;98292.25;5015039;28;20638;-50
2024/03/29 06:09:47;;;;;;;0.30;0.20;;;;;;;8.02;100.00;98294.75;5014889;28;20275;-50
2024/03/29 06:12:13;;;;;;;0.30;0.20;;;;;;;7.94;100.00;98302.19;5014874;28;20241;-50
2024/03/29 06:17:26;;;;;;;0.30;0.20;;;;;;;7.99;100.00;98294.91;5015537;28;20235;-50
2024/03/29 06:19:56;;;;;;;0.30;0.20;;;;;;;8.02;100.00;98293.88;5014972;28;20828;-50
2024/03/29 06:22:25;;;;;;;0.30;0.20;;;;;;;8.10;100.00;98302.31;5015081;28;20244;-50
2024/03/29 06:24:51;;;;;;;0.30;0.20;;;;;;;8.23;100.00;98294.59;5014890;28;20483;-51
2024/03/29 06:27:20;;;;;;;0.30;0.20;;;;;;;8.16;100.00;98295.84;5014979;28;20463;-51
2024/03/29 06:29:46;;;;;;;0.30;0.20;;;;;;;8.30;100.00;98294.19;5014702;28;20941;-50
2024/03/29 06:32:11;;;;;;;0.30;0.20;;;;;;;8.32;100.00;98300.25;5014571;28;20499;-50
2024/03/29 06:34:37;;;;;;;0.30;0.20;;;;;;;8.23;100.00;98289.31;5001687;28;20217;-50
2024/03/29 06:37:03;;;;;;;0.30;0.20;;;;;;;8.32;100.00;98302.06;5014894;28;20706;-50
2024/03/29 06:39:28;;;;;;;0.30;0.20;;;;;;;8.33;100.00;98293.16;5014730;28;20224;-51
2024/03/29 06:41:54;;;;;;;0.30;0.20;;;;;;;8.25;100.00;98290.94;5014037;28;20800;-50
2024/03/29 06:44:20;;;;;;;0.30;0.20;;;;;;;8.75;100.00;98298.03;5014759;28;20597;-50
2024/03/29 06:46:46;;;;;;;0.30;0.20;;;;;;;8.59;100.00;98300.66;5014546;28;20295;-51
2024/03/29 06:49:12;;;;;;;0.30;0.20;;;;;;;8.89;100.00;98299.94;5014534;28;20275;-51
2024/03/29 06:51:40;;;;;;;0.30;0.20;;;;;;;8.66;100.00;98293.25;5014374;28;20495;-50
2024/03/29 06:54:05;;;;;;;0.30;0.20;;;;;;;8.64;100.00;98288.97;5014678;28;20237;-50
2024/03/29 06:56:31;;;;;;;0.30;0.20;;;;;;;8.58;100.00;98290.13;5014429;28;20522;-50
2024/03/29 06:58:57;;;;;;;0.30;0.20;;;;;;;8.49;100.00;98298.56;5014761;28;20235;-50
2024/03/29 07:01:22;;;;;;;0.30;0.20;;;;;;;8.50;100.00;98292.34;5014552;28;20740;-50
2024/03/29 07:03:48;;;;;;;0.30;0.20;;;;;;;8.52;100.00;98296.63;5015096;28;20843;-50
2024/03/29 07:06:13;;;;;;;0.30;0.20;;;;;;;8.57;100.00;98309.63;5014802;28;20223;-51
2024/03/29 07:08:39;;;;;;;0.30;0.20;;;;;;;8.63;100.00;98303.13;4998430;28;20263;-50
2024/03/29 07:11:04;;;;;;;0.30;0.20;;;;;;;8.72;100.00;98298.22;5014646;28;20233;-50
2024/03/29 07:13:33;;;;;;;0.30;0.10;;;;;;;8.74;100.00;98292.81;5014106;28;20241;-50
2024/03/29 07:16:02;;;;;;;0.30;0.20;;;;;;;8.76;100.00;98286.50;5014371;28;20240;-50
2024/03/29 07:18:28;;;;;;;0.30;0.20;;;;;;;8.80;100.00;98287.22;5014527;28;20460;-50
2024/03/29 07:20:53;;;;;;;0.30;0.20;;;;;;;8.89;100.00;98295.50;5014398;28;20463;-50
2024/03/29 07:23:20;;;;;;;0.30;0.20;;;;;;;8.94;100.00;98297.94;5014502;28;20241;-51
2024/03/29 07:25:58;;;;;;;0.80;0.80;;;;;;;8.86;100.00;98294.81;5014282;28;20217;-51
2024/03/29 07:28:23;;;;;;;0.30;0.20;;;;;;;9.03;100.00;98296.56;5014503;28;20807;-50
2024/03/29 07:30:50;;;;;;;0.30;0.20;;;;;;;9.02;100.00;98293.06;5014233;28;20501;-51
2024/03/29 07:33:15;;;;;;;0.30;0.20;;;;;;;9.00;100.00;98296.72;5014025;28;20253;-51
2024/03/29 07:35:42;;;;;;;0.30;0.20;;;;;;;9.10;100.00;98290.84;5014334;28;20451;-50
2024/03/29 07:38:07;;;;;;;0.30;0.20;;;;;;;8.93;100.00;98290.91;5014348;28;20216;-50
2024/03/29 07:40:34;;;;;;;0.30;0.20;;;;;;;9.33;100.00;98286.09;5014204;28;20574;-50
2024/03/29 07:43:00;;;;;;;0.30;0.20;;;;;;;9.18;100.00;98287.75;5014198;28;20229;-50
2024/03/29 07:45:26;;;;;;;0.30;0.20;;;;;;;9.39;100.00;98286.59;5014120;28;20463;-50
2024/03/29 07:47:53;;;;;;;0.30;0.10;;;;;;;9.48;100.00;98290.53;5014011;28;20498;-50
2024/03/29 07:50:19;;;;;;;0.30;0.20;;;;;;;9.41;100.00;98283.84;5014156;28;20444;-51
2024/03/29 07:52:45;;;;;;;0.30;0.20;;;;;;;9.44;100.00;98287.16;5016049;28;20499;-51
2024/03/29 07:55:11;;;;;;;0.30;0.30;;;;;;;9.43;100.00;98284.59;5017208;28;20463;-50
2024/03/29 07:57:36;;;;;;;0.30;0.20;;;;;;;9.41;100.00;98275.88;5017321;28;20521;-50
2024/03/29 08:00:02;;;;;;;0.30;0.20;;;;;;;9.57;100.00;98286.47;5017510;28;20271;-50
2024/03/29 08:02:28;;;;;;;0.30;0.20;;;;;;;9.60;100.00;98286.31;5017254;28;20828;-50
2024/03/29 08:04:53;;;;;;;0.30;0.10;;;;;;;9.44;100.00;98299.56;5017617;28;20459;-50
2024/03/29 08:07:19;;;;;;;0.30;0.20;;;;;;;9.54;100.00;98310.53;5017248;28;20221;-50
2024/03/29 08:09:44;;;;;;;0.30;0.20;;;;;;;9.59;100.00;98303.16;5017477;28;20245;-51
2024/03/29 08:12:10;;;;;;;0.30;0.20;;;;;;;9.58;100.00;98304.94;5017178;28;20727;-51
2024/03/29 08:14:36;;;;;;;0.30;0.20;;;;;;;9.75;100.00;98311.97;5017304;28;20323;-50
2024/03/29 08:17:04;;;;;;;0.30;0.20;;;;;;;9.90;100.00;98318.19;5017493;28;20669;-51
2024/03/29 08:19:30;;;;;;;0.30;0.20;;;;;;;9.90;100.00;98318.19;5017282;28;20221;-50
2024/03/29 08:21:56;;;;;;;0.30;0.20;;;;;;;10.01;100.00;98311.34;5017163;28;20464;-50
2024/03/29 08:24:21;;;;;;;0.30;0.20;;;;;;;10.01;100.00;98316.66;5017166;28;20471;-51
2024/03/29 08:26:47;;;;;;;0.30;0.20;;;;;;;9.97;100.00;98324.84;5016988;28;20252;-51
2024/03/29 08:29:12;;;;;;;0.30;0.20;;;;;;;10.13;100.00;98322.16;5016964;28;20235;-51
2024/03/29 08:31:38;;;;;;;0.30;0.20;;;;;;;10.10;100.00;98326.69;5017011;28;20765;-50
2024/03/29 08:34:03;;;;;;;0.30;0.20;;;;;;;10.12;100.00;98331.91;5016745;28;20268;-51
2024/03/29 08:36:29;;;;;;;0.30;0.20;;;;;;;10.09;100.00;98332.97;5017010;28;20856;-51
2024/03/29 08:38:55;;;;;;;0.30;0.20;;;;;;;10.11;100.00;98338.19;5016786;28;20718;-50
2024/03/29 08:41:20;;;;;;;0.30;0.20;;;;;;;10.43;100.00;98327.53;5016727;28;20233;-50
2024/03/29 08:43:45;;;;;;;0.30;0.20;;;;;;;10.31;100.00;98342.38;5016326;28;20264;-51
2024/03/29 08:46:11;;;;;;;0.30;0.20;;;;;;;10.27;100.00;98338.16;5016803;28;20225;-50
2024/03/29 08:48:39;;;;;;;0.30;0.20;;;;;;;10.31;100.00;98343.22;5016490;28;20227;-51
2024/03/29 08:51:05;;;;;;;0.30;0.20;;;;;;;10.38;100.00;98349.88;5016269;28;20836;-51
2024/03/29 08:53:30;;;;;;;0.30;0.20;;;;;;;10.28;100.00;98355.81;5016177;28;20507;-51
2024/03/29 08:55:56;;;;;;;0.30;0.20;;;;;;;10.38;100.00;98347.22;5016519;28;20221;-51
2024/03/29 08:58:23;;;;;;;0.30;0.20;;;;;;;10.42;100.00;98352.38;5016409;28;20247;-51
2024/03/29 09:00:55;;;;;;;0.30;0.20;;;;;;;10.46;100.00;98359.19;5016435;28;20460;-50
2024/03/29 09:03:21;;;;;;;0.30;0.20;;;;;;;10.52;100.00;98367.66;5015735;28;20484;-50
2024/03/29 09:05:47;;;;;;;1.27;1.27;;;;;;;10.58;100.00;98369.97;5016416;28;20463;-51
2024/03/29 09:08:12;;;;;;;0.30;0.20;;;;;;;10.80;100.00;98373.97;5016277;28;20495;-51
2024/03/29 09:10:38;;;;;;;0.30;0.20;;;;;;;10.80;100.00;98372.16;5016213;28;20229;-51
2024/03/29 09:13:07;;;;;;;0.30;0.20;;;;;;;10.81;100.00;98378.34;5015900;28;20319;-50
2024/03/29 09:15:32;;;;;;;0.30;0.20;;;;;;;10.93;100.00;98375.78;5015871;28;20225;-51
2024/03/29 09:18:01;;;;;;;0.30;0.20;;;;;;;11.02;100.00;98373.53;4999764;28;20910;-51
2024/03/29 09:20:27;;;;;;;0.30;0.20;;;;;;;10.87;100.00;98376.19;5016010;28;20213;-50
2024/03/29 09:22:52;;;;;;;0.30;0.20;;;;;;;10.97;100.00;98377.34;5016002;28;20533;-50
2024/03/29 09:25:18;;;;;;;0.30;0.20;;;;;;;11.05;100.00;98391.94;5015522;28;20213;-51
2024/03/29 09:27:48;;;;;;;0.30;0.20;;;;;;;11.03;100.00;98388.53;5015707;28;20227;-50
2024/03/29 09:30:15;;;;;;;0.30;0.20;;;;;;;10.95;100.00;98395.16;5015854;28;20464;-51
2024/03/29 09:32:41;;;;;;;0.30;0.20;;;;;;;11.15;100.00;98398.41;5015418;28;20506;-51
2024/03/29 09:35:07;;;;;;;0.30;0.20;;;;;;;11.37;100.00;98390.81;5015727;28;20468;-51
2024/03/29 09:37:35;;;;;;;0.30;0.20;;;;;;;11.36;100.00;98401.53;5015353;28;20696;-51
2024/03/29 09:40:04;;;;;;;0.30;0.20;;;;;;;11.45;100.00;98401.84;5015499;28;20459;-51
2024/03/29 09:42:32;;;;;;;0.30;0.20;;;;;;;11.19;100.00;98405.25;5015280;28;20534;-51
2024/03/29 09:44:59;;;;;;;0.30;0.20;;;;;;;11.41;100.00;98410.97;5015669;28;20496;-50
2024/03/29 09:47:27;;;;;;;0.30;0.20;;;;;;;11.55;100.00;98407.44;5015047;28;21032;-51
2024/03/29 09:49:54;;;;;;;0.30;0.20;;;;;;;11.75;100.00;98411.50;5015175;28;20460;-51
2024/03/29 09:52:20;;;;;;;0.30;0.20;;;;;;;11.88;100.00;98406.28;5014762;28;21027;-51
2024/03/29 09:54:45;;;;;;;0.30;0.20;;;;;;;11.82;100.00;98400.41;5015300;28;20510;-51
2024/03/29 09:57:13;;;;;;;0.30;0.20;;;;;;;11.83;100.00;98401.25;5015006;28;20968;-50
2024/03/29 09:59:39;;;;;;;0.30;0.20;;;;;;;11.92;100.00;98405.97;5015189;28;20213;-51
2024/03/29 10:02:17;;;;;;;0.30;0.20;;;;;;;11.96;100.00;98427.94;5014974;28;20937;-51
2024/03/29 10:04:45;;;;;;;0.30;0.20;;;;;;;12.24;100.00;98419.03;5014898;28;20460;-51
2024/03/29 10:07:12;;;;;;;0.30;0.20;;;;;;;12.43;100.00;98408.84;5015086;28;20467;-51
2024/03/29 10:09:38;;;;;;;0.30;0.20;;;;;;;12.30;100.00;98414.13;5014947;28;20825;-51
2024/03/29 10:12:04;;;;;;;0.30;0.20;;;;;;;12.38;100.00;98424.31;5015066;28;20541;-51
2024/03/29 10:14:31;;;;;;;0.30;0.20;;;;;;;12.41;100.00;98421.44;5014893;28;20467;-51
2024/03/29 10:16:59;;;;;;;0.30;0.20;;;;;;;12.46;100.00;98421.97;5013935;28;20686;-51
2024/03/29 10:19:25;;;;;;;0.30;0.20;;;;;;;12.60;100.00;98421.91;5015273;28;20460;-51
2024/03/29 10:21:51;;;;;;;0.30;0.20;;;;;;;12.47;100.00;98410.34;5014839;28;20546;-51
2024/03/29 10:24:19;;;;;;;0.30;0.20;;;;;;;12.50;100.00;98407.50;5015029;28;20221;-51
2024/03/29 10:26:46;;;;;;;0.30;0.20;;;;;;;12.53;100.00;98395.78;5014867;28;21015;-51
2024/03/29 10:29:11;;;;;;;0.30;0.20;;;;;;;12.60;100.00;98395.25;5015126;28;20474;-51
2024/03/29 10:31:37;;;;;;;0.30;0.20;;;;;;;12.67;100.00;98391.22;5014984;28;20468;-51
2024/03/29 10:34:04;;;;;;;0.30;0.20;;;;;;;12.79;100.00;98386.03;5014848;28;20233;-51
2024/03/29 10:36:35;;;;;;;0.30;0.20;;;;;;;12.77;100.00;98370.13;5014791;28;20631;-51
2024/03/29 10:39:08;;;;;;;0.30;0.20;;;;;;;12.75;100.00;98377.41;5015034;28;20486;-50
2024/03/29 10:41:34;;;;;;;0.30;0.20;;;;;;;12.92;100.00;98371.75;5015294;28;20466;-51
2024/03/29 10:44:03;;;;;;;0.30;0.20;;;;;;;13.17;100.00;98360.22;5015011;28;20491;-51
2024/03/29 10:46:31;;;;;;;0.30;0.20;;;;;;;13.02;100.00;98356.81;4998857;28;20217;-51
2024/03/29 10:48:57;;;;;;;0.30;0.20;;;;;;;12.67;100.00;98355.72;5014823;28;20464;-51
2024/03/29 10:51:23;;;;;;;0.30;0.20;;;;;;;12.49;100.00;98357.84;5014939;28;20456;-51
2024/03/29 10:53:50;;;;;;;0.30;0.20;;;;;;;12.55;100.00;98361.88;5014542;28;20526;-51
2024/03/29 10:56:15;;;;;;;0.30;0.20;;;;;;;12.66;100.00;98368.19;5014712;28;20220;-51
2024/03/29 10:58:50;;;;;;;0.30;0.20;;;;;;;12.98;100.00;98362.47;5014850;28;20543;-51
2024/03/29 11:01:17;;;;;;;0.30;0.20;;;;;;;12.87;100.00;98336.53;5014919;28;20223;-51
2024/03/29 11:04:16;;;;;;;0.30;0.20;;;;;;;12.64;100.00;98351.47;5014423;28;20988;-51
2024/03/29 11:06:45;;;;;;;0.30;0.20;;;;;;;13.01;100.00;98351.56;5014545;28;20460;-51
2024/03/29 11:09:13;;;;;;;0.30;0.20;;;;;;;13.07;100.00;98364.50;5014785;28;20472;-51
2024/03/29 11:11:46;;;;;;;0.30;0.20;;;;;;;13.09;100.00;98367.91;5014156;28;20467;-51
2024/03/29 11:14:20;;;;;;;0.30;0.20;;;;;;;12.88;100.00;98386.22;5027603;23;20851;-49
2024/03/29 11:16:48;;;;;;;0.30;0.20;;;;;;;12.84;100.00;98386.56;5014138;28;20459;-50
2024/03/29 11:19:15;;;;;;;0.30;0.20;;;;;;;13.19;100.00;98409.03;5014135;28;20463;-51
2024/03/29 11:21:42;;;;;;;0.30;0.20;;;;;;;13.27;100.00;98413.81;4995021;28;20469;-51
2024/03/29 11:24:08;;;;;;;0.30;0.20;;;;;;;13.00;100.00;98427.22;4998249;28;20484;-50
2024/03/29 11:26:35;;;;;;;0.30;0.20;;;;;;;13.02;100.00;98428.84;5014526;28;20459;-51
2024/03/29 11:29:02;;;;;;;0.30;0.20;;;;;;;12.98;100.00;98429.97;5004641;28;20472;-51
2024/03/29 11:31:29;;;;;;;0.30;0.20;;;;;;;13.15;100.00;98439.50;5017940;28;20459;-50
2024/03/29 11:33:57;;;;;;;0.30;0.20;;;;;;;13.09;100.00;98425.75;5004173;28;20499;-51
2024/03/29 11:36:25;;;;;;;0.30;0.20;;;;;;;13.05;100.00;98417.94;5017575;28;20875;-50